EZY34VJ LGKR-EGKK
Flight info
| Callsign | EZY34VJ |
|---|---|
| Flight time | N/A |
| Altitude | 38000 |
| Route | OLGAT DCT ABADI DCT CRAYE DCT GISAM DCT IXONA DCT RESIA DCT ELMUR L613 HOC DCT LUL DCT RLP DCT ROTSI DCT KOTUN DCT NINAL DCT KESAX DCT KUNAV |
| Aircraft | A320/M-SDE3FGHIRWY/LB1 |
Departure
| Time | 2026-05-05 17:51 |
|---|---|
| Airport | Corfu Ioannis Kapodistrias International Airport (LGKR) |
Arrival
| Time | N/A |
|---|---|
| Airport | London Gatwick Airport (EGKK) |
| Time | Latitude | Longitude | Altitude | Speed | Heading |
|---|---|---|---|---|---|
| 2026-05-05 17:17 | 39.60654 | 19.91384 | 8 ft | 0 kts | 77° |
| 2026-05-05 17:37 | 39.60650 | 19.91351 | 8 ft | 4 kts | 92° |
| 2026-05-05 17:37 | 39.60654 | 19.91316 | 10 ft | 4 kts | 103° |
| 2026-05-05 17:38 | 39.60657 | 19.91288 | 11 ft | 4 kts | 40° |
| 2026-05-05 17:38 | 39.60660 | 19.91284 | 10 ft | 0 kts | 346° |
| 2026-05-05 17:42 | 39.60662 | 19.91283 | 10 ft | 2 kts | 346° |
| 2026-05-05 17:42 | 39.60697 | 19.91257 | 8 ft | 9 kts | 315° |
| 2026-05-05 17:43 | 39.60773 | 19.91198 | 7 ft | 17 kts | 347° |
| 2026-05-05 17:43 | 39.60890 | 19.91166 | 9 ft | 15 kts | 347° |
| 2026-05-05 17:43 | 39.61016 | 19.91133 | 8 ft | 22 kts | 348° |
| 2026-05-05 17:43 | 39.61141 | 19.91099 | 8 ft | 15 kts | 348° |
| 2026-05-05 17:44 | 39.61184 | 19.91085 | 8 ft | 0 kts | 336° |
| 2026-05-05 17:48 | 39.61185 | 19.91084 | 8 ft | 2 kts | 336° |
| 2026-05-05 17:48 | 39.61208 | 19.91057 | 8 ft | 5 kts | 306° |
| 2026-05-05 17:49 | 39.61231 | 19.90978 | 7 ft | 11 kts | 257° |
| 2026-05-05 17:49 | 39.61188 | 19.90957 | 7 ft | 0 kts | 171° |
| 2026-05-05 17:50 | 39.61185 | 19.90957 | 7 ft | 4 kts | 171° |
| 2026-05-05 17:50 | 39.60913 | 19.91025 | 6 ft | 79 kts | 169° |
| 2026-05-05 17:50 | 39.60159 | 19.91225 | 8 ft | 139 kts | 168° |
| 2026-05-05 17:51 | 39.59097 | 19.91478 | 349 ft | 159 kts | 172° |
| 2026-05-05 17:51 | 39.58022 | 19.91808 | 1077 ft | 159 kts | 152° |
| 2026-05-05 17:51 | 39.57278 | 19.92821 | 1630 ft | 168 kts | 111° |
| 2026-05-05 17:51 | 39.57228 | 19.94344 | 2150 ft | 175 kts | 69° |
| 2026-05-05 17:52 | 39.57971 | 19.95569 | 2746 ft | 177 kts | 28° |
| 2026-05-05 17:52 | 39.59155 | 19.95911 | 3375 ft | 176 kts | 350° |
| 2026-05-05 17:52 | 39.60256 | 19.95292 | 3981 ft | 175 kts | 316° |
| 2026-05-05 17:52 | 39.60903 | 19.93981 | 4587 ft | 175 kts | 283° |
| 2026-05-05 17:53 | 39.60967 | 19.92378 | 5037 ft | 187 kts | 265° |
| 2026-05-05 17:53 | 39.60751 | 19.90611 | 5278 ft | 210 kts | 255° |
| 2026-05-05 17:53 | 39.60492 | 19.88659 | 5518 ft | 236 kts | 276° |
| 2026-05-05 17:53 | 39.61149 | 19.86633 | 5897 ft | 260 kts | 309° |
| 2026-05-05 17:54 | 39.62424 | 19.84864 | 6525 ft | 273 kts | 314° |
| 2026-05-05 17:54 | 39.63766 | 19.83090 | 7333 ft | 278 kts | 315° |
| 2026-05-05 17:54 | 39.65129 | 19.81292 | 8235 ft | 280 kts | 314° |
| 2026-05-05 17:54 | 39.66500 | 19.79470 | 9147 ft | 283 kts | 314° |
| 2026-05-05 17:55 | 39.67871 | 19.77632 | 10040 ft | 286 kts | 314° |
| 2026-05-05 17:55 | 39.69287 | 19.75723 | 10513 ft | 304 kts | 314° |
| 2026-05-05 17:55 | 39.70793 | 19.73685 | 10859 ft | 324 kts | 314° |
| 2026-05-05 17:55 | 39.72367 | 19.71550 | 11517 ft | 331 kts | 314° |
| 2026-05-05 17:56 | 39.73967 | 19.69378 | 12295 ft | 334 kts | 313° |
| 2026-05-05 17:56 | 39.75586 | 19.67180 | 13084 ft | 337 kts | 313° |
| 2026-05-05 17:56 | 39.77215 | 19.64966 | 13853 ft | 341 kts | 313° |
| 2026-05-05 17:56 | 39.78857 | 19.62735 | 14539 ft | 343 kts | 313° |
| 2026-05-05 17:57 | 39.80510 | 19.60483 | 15229 ft | 346 kts | 313° |
| 2026-05-05 17:57 | 39.82176 | 19.58207 | 15934 ft | 348 kts | 313° |
| 2026-05-05 17:57 | 39.83849 | 19.55920 | 16635 ft | 349 kts | 313° |
| 2026-05-05 17:57 | 39.85511 | 19.53654 | 17315 ft | 352 kts | 313° |
| 2026-05-05 17:58 | 39.87208 | 19.51348 | 17991 ft | 354 kts | 313° |
| 2026-05-05 17:58 | 39.88915 | 19.49021 | 18619 ft | 357 kts | 313° |
| 2026-05-05 17:58 | 39.90629 | 19.46677 | 19190 ft | 359 kts | 313° |
| 2026-05-05 17:58 | 39.92354 | 19.44313 | 19775 ft | 361 kts | 313° |
| 2026-05-05 17:59 | 39.94086 | 19.41937 | 20344 ft | 363 kts | 313° |
| 2026-05-05 17:59 | 39.95828 | 19.39546 | 20911 ft | 365 kts | 313° |
| 2026-05-05 17:59 | 39.97581 | 19.37139 | 21470 ft | 366 kts | 313° |
| 2026-05-05 17:59 | 39.99326 | 19.34742 | 22017 ft | 368 kts | 313° |
| 2026-05-05 18:00 | 40.01089 | 19.32318 | 22561 ft | 370 kts | 313° |
| 2026-05-05 18:00 | 40.02865 | 19.29875 | 23100 ft | 372 kts | 313° |
| 2026-05-05 18:00 | 40.04650 | 19.27416 | 23616 ft | 375 kts | 313° |
| 2026-05-05 18:00 | 40.06447 | 19.24939 | 24077 ft | 376 kts | 312° |
| 2026-05-05 18:01 | 40.08250 | 19.22452 | 24506 ft | 378 kts | 312° |
| 2026-05-05 18:01 | 40.10059 | 19.19957 | 24944 ft | 379 kts | 312° |
| 2026-05-05 18:01 | 40.11876 | 19.17450 | 25380 ft | 380 kts | 312° |
| 2026-05-05 18:01 | 40.13689 | 19.14944 | 25804 ft | 382 kts | 312° |
| 2026-05-05 18:02 | 40.15519 | 19.12414 | 26219 ft | 383 kts | 312° |
| 2026-05-05 18:02 | 40.17352 | 19.09880 | 26637 ft | 385 kts | 312° |
| 2026-05-05 18:02 | 40.19192 | 19.07331 | 27052 ft | 386 kts | 311° |
| 2026-05-05 18:02 | 40.20984 | 19.04845 | 27445 ft | 388 kts | 311° |
| 2026-05-05 18:03 | 40.22838 | 19.02278 | 27857 ft | 389 kts | 312° |
| 2026-05-05 18:03 | 40.24880 | 18.99931 | 28244 ft | 393 kts | 321° |
| 2026-05-05 18:03 | 40.27231 | 18.98068 | 28647 ft | 398 kts | 328° |
| 2026-05-05 18:03 | 40.29594 | 18.96438 | 29032 ft | 399 kts | 328° |
| 2026-05-05 18:04 | 40.32131 | 18.94679 | 29411 ft | 401 kts | 328° |
| 2026-05-05 18:04 | 40.34595 | 18.92964 | 29788 ft | 402 kts | 328° |
| 2026-05-05 18:04 | 40.37076 | 18.91231 | 30128 ft | 404 kts | 328° |
| 2026-05-05 18:04 | 40.39514 | 18.89526 | 30407 ft | 406 kts | 328° |
| 2026-05-05 18:05 | 40.42051 | 18.87746 | 30702 ft | 407 kts | 328° |
| 2026-05-05 18:05 | 40.44551 | 18.85992 | 30978 ft | 409 kts | 328° |
| 2026-05-05 18:05 | 40.47068 | 18.84225 | 31261 ft | 410 kts | 328° |
| 2026-05-05 18:05 | 40.49588 | 18.82460 | 31545 ft | 411 kts | 328° |
| 2026-05-05 18:06 | 40.52092 | 18.80706 | 31926 ft | 410 kts | 328° |
| 2026-05-05 18:06 | 40.53789 | 18.79516 | 32195 ft | 409 kts | 328° |
| 2026-05-05 18:06 | 40.57107 | 18.77185 | 32736 ft | 407 kts | 327° |
| 2026-05-05 18:06 | 40.59592 | 18.75436 | 33133 ft | 405 kts | 327° |
| 2026-05-05 18:07 | 40.62071 | 18.73688 | 33534 ft | 403 kts | 327° |
| 2026-05-05 18:07 | 40.64539 | 18.71944 | 33932 ft | 402 kts | 327° |
| 2026-05-05 18:07 | 40.67027 | 18.70181 | 34310 ft | 400 kts | 327° |
| 2026-05-05 18:07 | 40.69444 | 18.68471 | 34622 ft | 399 kts | 327° |
| 2026-05-05 18:08 | 40.71879 | 18.66747 | 34905 ft | 399 kts | 327° |
| 2026-05-05 18:08 | 40.74328 | 18.65013 | 35162 ft | 399 kts | 327° |
| 2026-05-05 18:08 | 40.76781 | 18.63282 | 35422 ft | 400 kts | 328° |
| 2026-05-05 18:08 | 40.79245 | 18.61588 | 35676 ft | 400 kts | 328° |
| 2026-05-05 18:09 | 40.81726 | 18.59918 | 35929 ft | 400 kts | 329° |
| 2026-05-05 18:09 | 40.84212 | 18.58258 | 36181 ft | 400 kts | 329° |
| 2026-05-05 18:09 | 40.86699 | 18.56596 | 36417 ft | 400 kts | 329° |
| 2026-05-05 18:09 | 40.89180 | 18.54924 | 36657 ft | 400 kts | 329° |
| 2026-05-05 18:10 | 40.91640 | 18.53254 | 36890 ft | 400 kts | 329° |
| 2026-05-05 18:10 | 40.94151 | 18.51543 | 37124 ft | 400 kts | 329° |
| 2026-05-05 18:10 | 40.96582 | 18.49883 | 37352 ft | 399 kts | 329° |
| 2026-05-05 18:10 | 40.99049 | 18.48198 | 37589 ft | 399 kts | 329° |
| 2026-05-05 18:11 | 41.01516 | 18.46508 | 37791 ft | 399 kts | 329° |
| 2026-05-05 18:11 | 41.04014 | 18.44796 | 38007 ft | 399 kts | 329° |
| 2026-05-05 18:11 | 41.06450 | 18.43126 | 38068 ft | 399 kts | 329° |
| 2026-05-05 18:12 | 41.11357 | 18.39766 | 38071 ft | 398 kts | 329° |
| 2026-05-05 18:12 | 41.16306 | 18.36377 | 38064 ft | 398 kts | 329° |
| 2026-05-05 18:13 | 41.21230 | 18.32991 | 38072 ft | 398 kts | 329° |
| 2026-05-05 18:13 | 41.26151 | 18.29610 | 38072 ft | 398 kts | 329° |
| 2026-05-05 18:14 | 41.31034 | 18.26239 | 38074 ft | 398 kts | 329° |
| 2026-05-05 18:14 | 41.35968 | 18.22819 | 38080 ft | 399 kts | 329° |
| 2026-05-05 18:15 | 41.40896 | 18.19411 | 38082 ft | 399 kts | 329° |
| 2026-05-05 18:15 | 41.45818 | 18.16013 | 38085 ft | 398 kts | 328° |
| 2026-05-05 18:16 | 41.50704 | 18.12532 | 38072 ft | 398 kts | 323° |
| 2026-05-05 18:16 | 41.55330 | 18.08415 | 38060 ft | 406 kts | 323° |
| 2026-05-05 18:17 | 41.60091 | 18.04201 | 38060 ft | 413 kts | 323° |
| 2026-05-05 18:17 | 41.64896 | 17.99956 | 38057 ft | 415 kts | 323° |
| 2026-05-05 18:18 | 41.69716 | 17.95689 | 38059 ft | 416 kts | 323° |
| 2026-05-05 18:18 | 41.74516 | 17.91410 | 38059 ft | 416 kts | 323° |
| 2026-05-05 18:19 | 41.79326 | 17.87105 | 38056 ft | 416 kts | 322° |
| 2026-05-05 18:19 | 41.84141 | 17.82786 | 38058 ft | 417 kts | 322° |
| 2026-05-05 18:20 | 41.88962 | 17.78467 | 38061 ft | 417 kts | 322° |
| 2026-05-05 18:20 | 41.93467 | 17.73733 | 38064 ft | 412 kts | 312° |
| 2026-05-05 18:21 | 41.97530 | 17.68280 | 38068 ft | 413 kts | 312° |
| 2026-05-05 18:21 | 42.01602 | 17.62824 | 38068 ft | 414 kts | 312° |
| 2026-05-05 18:22 | 42.05676 | 17.57356 | 38072 ft | 414 kts | 312° |
| 2026-05-05 18:22 | 42.09734 | 17.51887 | 38069 ft | 414 kts | 312° |
| 2026-05-05 18:23 | 42.13805 | 17.46404 | 38068 ft | 414 kts | 312° |
| 2026-05-05 18:23 | 42.17869 | 17.40912 | 38067 ft | 414 kts | 312° |
| 2026-05-05 18:24 | 42.21931 | 17.35411 | 38065 ft | 414 kts | 312° |
| 2026-05-05 18:24 | 42.25972 | 17.29928 | 38061 ft | 414 kts | 312° |
| 2026-05-05 18:25 | 42.30032 | 17.24413 | 38060 ft | 414 kts | 312° |
| 2026-05-05 18:25 | 42.34083 | 17.18888 | 38058 ft | 414 kts | 312° |
| 2026-05-05 18:26 | 42.38137 | 17.13355 | 38057 ft | 414 kts | 312° |
| 2026-05-05 18:26 | 42.42181 | 17.07831 | 38059 ft | 414 kts | 312° |
| 2026-05-05 18:27 | 42.45551 | 17.03219 | 38055 ft | 414 kts | 312° |
| 2026-05-05 18:27 | 42.49602 | 16.97657 | 38056 ft | 415 kts | 311° |
| 2026-05-05 18:28 | 42.55681 | 16.89290 | 38059 ft | 415 kts | 311° |
| 2026-05-05 18:28 | 42.59725 | 16.83713 | 38059 ft | 416 kts | 311° |
| 2026-05-05 18:29 | 42.63779 | 16.78115 | 38062 ft | 416 kts | 311° |
| 2026-05-05 18:29 | 42.67830 | 16.72500 | 38060 ft | 416 kts | 311° |
| 2026-05-05 18:30 | 42.71875 | 16.66874 | 38059 ft | 416 kts | 311° |
| 2026-05-05 18:30 | 42.75913 | 16.61258 | 38054 ft | 416 kts | 311° |
| 2026-05-05 18:31 | 42.79972 | 16.55614 | 38052 ft | 417 kts | 311° |
| 2026-05-05 18:31 | 42.84028 | 16.49957 | 38050 ft | 417 kts | 311° |
| 2026-05-05 18:32 | 42.88080 | 16.44293 | 38051 ft | 418 kts | 311° |
| 2026-05-05 18:32 | 42.92124 | 16.38632 | 38059 ft | 418 kts | 311° |
| 2026-05-05 18:33 | 42.96180 | 16.32937 | 38057 ft | 418 kts | 311° |
| 2026-05-05 18:33 | 43.00240 | 16.27228 | 38062 ft | 419 kts | 311° |
| 2026-05-05 18:34 | 43.04295 | 16.21514 | 38060 ft | 419 kts | 311° |
| 2026-05-05 18:34 | 43.08336 | 16.15809 | 38060 ft | 419 kts | 311° |
| 2026-05-05 18:35 | 43.12407 | 16.10039 | 38060 ft | 419 kts | 311° |
| 2026-05-05 18:35 | 43.16404 | 16.04365 | 38065 ft | 419 kts | 311° |
| 2026-05-05 18:36 | 43.20474 | 15.98579 | 38066 ft | 419 kts | 311° |
| 2026-05-05 18:36 | 43.24543 | 15.92791 | 38058 ft | 419 kts | 311° |
| 2026-05-05 18:37 | 43.28581 | 15.87043 | 38065 ft | 419 kts | 311° |
| 2026-05-05 18:37 | 43.32617 | 15.81263 | 38061 ft | 419 kts | 310° |
| 2026-05-05 18:38 | 43.36650 | 15.75478 | 38061 ft | 419 kts | 310° |
| 2026-05-05 18:38 | 43.40682 | 15.69695 | 38063 ft | 419 kts | 310° |
| 2026-05-05 18:39 | 43.44675 | 15.63958 | 38054 ft | 419 kts | 310° |
| 2026-05-05 18:39 | 43.48720 | 15.58123 | 38051 ft | 419 kts | 310° |
| 2026-05-05 18:40 | 43.52741 | 15.52300 | 38059 ft | 419 kts | 310° |
| 2026-05-05 18:40 | 43.56763 | 15.46462 | 38059 ft | 420 kts | 310° |
| 2026-05-05 18:41 | 43.60772 | 15.40656 | 38061 ft | 420 kts | 310° |
| 2026-05-05 18:41 | 43.64806 | 15.34808 | 38062 ft | 420 kts | 310° |
| 2026-05-05 18:42 | 43.68828 | 15.28944 | 38060 ft | 420 kts | 310° |
| 2026-05-05 18:42 | 43.72847 | 15.23070 | 38060 ft | 421 kts | 310° |
| 2026-05-05 18:43 | 43.76868 | 15.17203 | 38056 ft | 421 kts | 310° |
| 2026-05-05 18:43 | 43.80892 | 15.11309 | 38060 ft | 421 kts | 310° |
| 2026-05-05 18:44 | 43.84915 | 15.05396 | 38055 ft | 421 kts | 310° |
| 2026-05-05 18:44 | 43.88925 | 14.99483 | 38052 ft | 421 kts | 309° |
| 2026-05-05 18:45 | 43.92928 | 14.93576 | 38053 ft | 421 kts | 310° |
| 2026-05-05 18:45 | 43.96941 | 14.87648 | 38050 ft | 421 kts | 309° |
| 2026-05-05 18:46 | 44.00956 | 14.81709 | 38051 ft | 422 kts | 309° |
| 2026-05-05 18:46 | 44.04966 | 14.75765 | 38049 ft | 422 kts | 309° |
| 2026-05-05 18:47 | 44.08955 | 14.69829 | 38048 ft | 422 kts | 309° |
| 2026-05-05 18:47 | 44.12957 | 14.63855 | 38048 ft | 422 kts | 309° |
| 2026-05-05 18:48 | 44.16955 | 14.57876 | 38045 ft | 422 kts | 309° |
| 2026-05-05 18:48 | 44.20958 | 14.51887 | 38044 ft | 423 kts | 309° |
| 2026-05-05 18:49 | 44.24953 | 14.45902 | 38046 ft | 423 kts | 309° |
| 2026-05-05 18:49 | 44.28952 | 14.39891 | 38040 ft | 423 kts | 309° |
| 2026-05-05 18:50 | 44.32945 | 14.33868 | 38046 ft | 423 kts | 309° |
| 2026-05-05 18:50 | 44.36937 | 14.27826 | 38039 ft | 423 kts | 309° |
| 2026-05-05 18:51 | 44.40923 | 14.21791 | 38035 ft | 424 kts | 309° |
| 2026-05-05 18:51 | 44.44917 | 14.15733 | 38029 ft | 424 kts | 309° |
| 2026-05-05 18:52 | 44.48916 | 14.09658 | 38026 ft | 424 kts | 309° |
| 2026-05-05 18:52 | 44.52912 | 14.03563 | 38024 ft | 425 kts | 309° |
| 2026-05-05 18:53 | 44.56912 | 13.97467 | 38027 ft | 425 kts | 309° |
| 2026-05-05 18:53 | 44.60891 | 13.91386 | 38031 ft | 426 kts | 309° |
| 2026-05-05 18:54 | 44.64897 | 13.85242 | 38035 ft | 426 kts | 309° |
| 2026-05-05 18:54 | 44.68889 | 13.79100 | 38033 ft | 427 kts | 309° |
| 2026-05-05 18:55 | 44.72897 | 13.72930 | 38036 ft | 427 kts | 309° |
| 2026-05-05 18:55 | 44.76893 | 13.66770 | 38032 ft | 428 kts | 309° |
| 2026-05-05 18:56 | 44.80908 | 13.60568 | 38023 ft | 429 kts | 309° |
| 2026-05-05 18:56 | 44.84857 | 13.54276 | 38017 ft | 427 kts | 303° |
| 2026-05-05 18:57 | 44.88247 | 13.47407 | 38012 ft | 427 kts | 302° |
| 2026-05-05 18:57 | 44.91624 | 13.40561 | 38013 ft | 427 kts | 302° |
| 2026-05-05 18:58 | 44.95021 | 13.33678 | 38016 ft | 428 kts | 301° |
| 2026-05-05 18:58 | 44.98408 | 13.26770 | 38011 ft | 428 kts | 301° |
| 2026-05-05 18:59 | 45.01824 | 13.19800 | 38007 ft | 429 kts | 301° |
| 2026-05-05 18:59 | 45.05194 | 13.12913 | 38008 ft | 430 kts | 301° |
| 2026-05-05 19:00 | 45.08589 | 13.05941 | 38006 ft | 431 kts | 301° |
| 2026-05-05 19:00 | 45.11985 | 12.98951 | 38011 ft | 431 kts | 301° |
| 2026-05-05 19:01 | 45.15380 | 12.91943 | 38008 ft | 432 kts | 301° |
| 2026-05-05 19:01 | 45.18740 | 12.84988 | 38011 ft | 432 kts | 301° |
| 2026-05-05 19:02 | 45.22160 | 12.77912 | 38007 ft | 432 kts | 301° |
| 2026-05-05 19:02 | 45.25552 | 12.70871 | 38010 ft | 433 kts | 301° |
| 2026-05-05 19:03 | 45.28954 | 12.63800 | 38016 ft | 434 kts | 301° |
| 2026-05-05 19:03 | 45.32329 | 12.56748 | 38015 ft | 434 kts | 300° |
| 2026-05-05 19:04 | 45.35147 | 12.50834 | 38020 ft | 435 kts | 300° |
| 2026-05-05 19:04 | 45.38542 | 12.43724 | 38014 ft | 435 kts | 300° |
| 2026-05-05 19:05 | 45.41939 | 12.36579 | 38017 ft | 436 kts | 300° |
| 2026-05-05 19:05 | 45.45336 | 12.29425 | 38028 ft | 436 kts | 300° |
| 2026-05-05 19:06 | 45.48710 | 12.22294 | 38021 ft | 437 kts | 300° |
| 2026-05-05 19:06 | 45.52095 | 12.15105 | 38016 ft | 437 kts | 300° |
| 2026-05-05 19:07 | 45.55489 | 12.07904 | 38018 ft | 437 kts | 300° |
| 2026-05-05 19:07 | 45.58880 | 12.00694 | 38019 ft | 438 kts | 300° |
| 2026-05-05 19:08 | 45.62252 | 11.93493 | 38020 ft | 438 kts | 300° |
| 2026-05-05 19:08 | 45.65636 | 11.86239 | 38019 ft | 439 kts | 299° |
| 2026-05-05 19:09 | 45.69021 | 11.78981 | 38022 ft | 439 kts | 299° |
| 2026-05-05 19:09 | 45.72371 | 11.71778 | 38022 ft | 440 kts | 299° |
| 2026-05-05 19:10 | 45.75755 | 11.64480 | 38028 ft | 440 kts | 299° |
| 2026-05-05 19:10 | 45.79140 | 11.57159 | 38030 ft | 441 kts | 299° |
| 2026-05-05 19:11 | 45.82533 | 11.49809 | 38036 ft | 442 kts | 299° |
| 2026-05-05 19:11 | 45.85915 | 11.42452 | 38035 ft | 442 kts | 299° |
| 2026-05-05 19:12 | 45.89289 | 11.35095 | 38036 ft | 443 kts | 298° |
| 2026-05-05 19:12 | 45.92674 | 11.27697 | 38033 ft | 443 kts | 298° |
| 2026-05-05 19:13 | 45.96058 | 11.20294 | 38026 ft | 443 kts | 298° |
| 2026-05-05 19:13 | 45.99436 | 11.12869 | 38028 ft | 444 kts | 298° |
| 2026-05-05 19:14 | 46.02803 | 11.05456 | 38036 ft | 444 kts | 298° |
| 2026-05-05 19:14 | 46.06189 | 10.98002 | 38042 ft | 445 kts | 298° |
| 2026-05-05 19:15 | 46.09592 | 10.90472 | 38046 ft | 446 kts | 298° |
| 2026-05-05 19:15 | 46.12960 | 10.82980 | 38038 ft | 447 kts | 298° |
| 2026-05-05 19:16 | 46.16324 | 10.75467 | 38034 ft | 448 kts | 298° |
| 2026-05-05 19:16 | 46.19706 | 10.67916 | 38027 ft | 448 kts | 298° |
| 2026-05-05 19:17 | 46.23082 | 10.60368 | 38009 ft | 447 kts | 298° |
| 2026-05-05 19:17 | 46.26452 | 10.52804 | 38007 ft | 448 kts | 297° |
| 2026-05-05 19:18 | 46.29797 | 10.45286 | 38010 ft | 449 kts | 297° |
| 2026-05-05 19:18 | 46.33178 | 10.37683 | 38010 ft | 450 kts | 297° |
| 2026-05-05 19:19 | 46.36546 | 10.30049 | 38001 ft | 450 kts | 297° |
| 2026-05-05 19:19 | 46.39908 | 10.22398 | 37993 ft | 451 kts | 297° |
| 2026-05-05 19:20 | 46.43269 | 10.14747 | 38001 ft | 452 kts | 297° |
| 2026-05-05 19:20 | 46.46636 | 10.07049 | 37989 ft | 452 kts | 297° |
| 2026-05-05 19:21 | 46.50551 | 9.99857 | 37995 ft | 459 kts | 306° |
| 2026-05-05 19:21 | 46.54572 | 9.93277 | 38002 ft | 459 kts | 306° |
| 2026-05-05 19:22 | 46.58757 | 9.86360 | 37995 ft | 459 kts | 306° |
| 2026-05-05 19:22 | 46.62962 | 9.79397 | 37992 ft | 459 kts | 306° |
| 2026-05-05 19:23 | 46.67154 | 9.72460 | 37983 ft | 459 kts | 306° |
| 2026-05-05 19:23 | 46.71268 | 9.65648 | 37963 ft | 460 kts | 306° |
| 2026-05-05 19:24 | 46.75477 | 9.58634 | 37939 ft | 460 kts | 306° |
| 2026-05-05 19:24 | 46.79674 | 9.51616 | 37917 ft | 460 kts | 306° |
| 2026-05-05 19:25 | 46.83820 | 9.44685 | 37918 ft | 461 kts | 306° |
| 2026-05-05 19:25 | 46.88021 | 9.37621 | 37917 ft | 462 kts | 306° |
| 2026-05-05 19:26 | 46.92240 | 9.30522 | 37914 ft | 462 kts | 306° |
| 2026-05-05 19:26 | 46.96440 | 9.23452 | 37919 ft | 463 kts | 306° |
| 2026-05-05 19:27 | 47.00657 | 9.16316 | 37922 ft | 463 kts | 306° |
| 2026-05-05 19:27 | 47.04819 | 9.09246 | 37926 ft | 463 kts | 306° |
| 2026-05-05 19:28 | 47.09031 | 9.02092 | 37919 ft | 463 kts | 306° |
| 2026-05-05 19:28 | 47.13141 | 8.95084 | 37913 ft | 463 kts | 306° |
| 2026-05-05 19:29 | 47.16544 | 8.87217 | 37917 ft | 452 kts | 288° |
| 2026-05-05 19:29 | 47.18779 | 8.78623 | 37914 ft | 451 kts | 286° |
| 2026-05-05 19:30 | 47.20924 | 8.70185 | 37919 ft | 452 kts | 286° |
| 2026-05-05 19:30 | 47.23086 | 8.61653 | 37919 ft | 452 kts | 286° |
| 2026-05-05 19:31 | 47.25276 | 8.52950 | 37924 ft | 453 kts | 286° |
| 2026-05-05 19:31 | 47.27469 | 8.44233 | 37923 ft | 453 kts | 286° |
| 2026-05-05 19:32 | 47.29667 | 8.35497 | 37945 ft | 453 kts | 286° |
| 2026-05-05 19:32 | 47.31853 | 8.26791 | 37943 ft | 453 kts | 286° |
| 2026-05-05 19:33 | 47.33947 | 8.18358 | 37938 ft | 454 kts | 286° |
| 2026-05-05 19:33 | 47.36112 | 8.09593 | 37939 ft | 455 kts | 286° |
| 2026-05-05 19:34 | 47.38271 | 8.00823 | 37932 ft | 455 kts | 286° |
| 2026-05-05 19:35 | 47.41500 | 7.87708 | 37929 ft | 456 kts | 286° |
| 2026-05-05 19:35 | 47.43472 | 7.79633 | 37924 ft | 456 kts | 285° |
| 2026-05-05 19:36 | 47.45599 | 7.70873 | 37915 ft | 457 kts | 286° |
| 2026-05-05 19:36 | 47.47443 | 7.61849 | 37913 ft | 454 kts | 280° |
| 2026-05-05 19:37 | 47.48955 | 7.52836 | 37912 ft | 455 kts | 280° |
| 2026-05-05 19:37 | 47.50469 | 7.43750 | 37912 ft | 456 kts | 280° |
| 2026-05-05 19:38 | 47.51979 | 7.34632 | 37913 ft | 456 kts | 280° |
| 2026-05-05 19:38 | 47.53483 | 7.25531 | 37905 ft | 457 kts | 280° |
| 2026-05-05 19:39 | 47.54990 | 7.16388 | 37905 ft | 457 kts | 280° |
| 2026-05-05 19:39 | 47.56790 | 7.07431 | 37900 ft | 464 kts | 294° |
| 2026-05-05 19:40 | 47.59948 | 6.99069 | 37903 ft | 466 kts | 296° |
| 2026-05-05 19:40 | 47.63151 | 6.90726 | 37899 ft | 466 kts | 296° |
| 2026-05-05 19:41 | 47.65808 | 6.83764 | 37899 ft | 466 kts | 296° |
| 2026-05-05 19:41 | 47.68974 | 6.75398 | 37893 ft | 466 kts | 296° |
| 2026-05-05 19:42 | 47.72164 | 6.66947 | 37890 ft | 466 kts | 296° |
| 2026-05-05 19:42 | 47.75319 | 6.58593 | 37887 ft | 467 kts | 296° |
| 2026-05-05 19:43 | 47.78493 | 6.50174 | 37883 ft | 467 kts | 296° |
| 2026-05-05 19:43 | 47.81668 | 6.41710 | 37892 ft | 467 kts | 296° |
| 2026-05-05 19:44 | 47.84821 | 6.33258 | 37887 ft | 467 kts | 296° |
| 2026-05-05 19:44 | 47.87968 | 6.24802 | 37887 ft | 467 kts | 296° |
| 2026-05-05 19:45 | 47.91113 | 6.16333 | 37888 ft | 467 kts | 296° |
| 2026-05-05 19:45 | 47.94240 | 6.07892 | 37880 ft | 467 kts | 296° |
| 2026-05-05 19:46 | 47.97368 | 5.99397 | 37873 ft | 467 kts | 296° |
| 2026-05-05 19:46 | 48.00495 | 5.90879 | 37879 ft | 468 kts | 296° |
| 2026-05-05 19:47 | 48.03619 | 5.82356 | 37868 ft | 468 kts | 296° |
| 2026-05-05 19:47 | 48.06738 | 5.73810 | 37878 ft | 468 kts | 296° |
| 2026-05-05 19:48 | 48.09842 | 5.65284 | 37868 ft | 469 kts | 296° |
| 2026-05-05 19:48 | 48.12960 | 5.56706 | 37868 ft | 469 kts | 296° |
| 2026-05-05 19:49 | 48.16063 | 5.48124 | 37867 ft | 469 kts | 296° |
| 2026-05-05 19:49 | 48.19163 | 5.39512 | 37867 ft | 469 kts | 296° |
| 2026-05-05 19:50 | 48.22233 | 5.30952 | 37870 ft | 470 kts | 296° |
| 2026-05-05 19:50 | 48.25320 | 5.22328 | 37868 ft | 469 kts | 296° |
| 2026-05-05 19:51 | 48.28404 | 5.13686 | 37867 ft | 470 kts | 296° |
| 2026-05-05 19:51 | 48.31484 | 5.05041 | 37864 ft | 470 kts | 296° |
| 2026-05-05 19:52 | 48.34543 | 4.96434 | 37860 ft | 470 kts | 295° |
| 2026-05-05 19:52 | 48.37603 | 4.87752 | 37856 ft | 470 kts | 295° |
| 2026-05-05 19:53 | 48.40665 | 4.79072 | 37854 ft | 470 kts | 295° |
| 2026-05-05 19:53 | 48.43722 | 4.70379 | 37856 ft | 469 kts | 295° |
| 2026-05-05 19:54 | 48.46744 | 4.61762 | 37852 ft | 470 kts | 295° |
| 2026-05-05 19:54 | 48.49788 | 4.53041 | 37843 ft | 470 kts | 295° |
| 2026-05-05 19:55 | 48.52821 | 4.44306 | 37838 ft | 470 kts | 295° |
| 2026-05-05 19:55 | 48.55844 | 4.35562 | 37831 ft | 470 kts | 295° |
| 2026-05-05 19:56 | 48.58864 | 4.26824 | 37823 ft | 470 kts | 295° |
| 2026-05-05 19:56 | 48.61883 | 4.18053 | 37827 ft | 470 kts | 295° |
| 2026-05-05 19:57 | 48.64893 | 4.09267 | 37829 ft | 471 kts | 295° |
| 2026-05-05 19:57 | 48.67894 | 4.00485 | 37828 ft | 471 kts | 295° |
| 2026-05-05 19:58 | 48.70882 | 3.91718 | 37823 ft | 471 kts | 296° |
| 2026-05-05 19:58 | 48.74733 | 3.83696 | 37823 ft | 474 kts | 314° |
| 2026-05-05 19:59 | 48.79453 | 3.76714 | 37821 ft | 475 kts | 314° |
| 2026-05-05 19:59 | 48.84173 | 3.69698 | 37823 ft | 475 kts | 314° |
| 2026-05-05 20:00 | 48.88876 | 3.62673 | 37825 ft | 475 kts | 314° |
| 2026-05-05 20:00 | 48.93578 | 3.55609 | 37825 ft | 476 kts | 314° |
| 2026-05-05 20:01 | 48.98247 | 3.48583 | 37828 ft | 476 kts | 314° |
| 2026-05-05 20:01 | 49.02987 | 3.41439 | 37828 ft | 476 kts | 314° |
| 2026-05-05 20:02 | 49.07696 | 3.34327 | 37830 ft | 476 kts | 314° |
| 2026-05-05 20:02 | 49.12368 | 3.27242 | 37833 ft | 476 kts | 314° |
| 2026-05-05 20:03 | 49.17050 | 3.20131 | 37836 ft | 476 kts | 314° |
| 2026-05-05 20:03 | 49.21723 | 3.13010 | 37838 ft | 476 kts | 314° |
| 2026-05-05 20:04 | 49.26443 | 3.05791 | 37844 ft | 477 kts | 314° |
| 2026-05-05 20:04 | 49.31110 | 2.98627 | 37846 ft | 477 kts | 313° |
| 2026-05-05 20:05 | 49.35792 | 2.91428 | 37846 ft | 477 kts | 313° |
| 2026-05-05 20:05 | 49.40461 | 2.84221 | 37856 ft | 477 kts | 313° |
| 2026-05-05 20:06 | 49.45133 | 2.76982 | 37863 ft | 477 kts | 313° |
| 2026-05-05 20:06 | 49.49784 | 2.69780 | 37871 ft | 477 kts | 313° |
| 2026-05-05 20:07 | 49.54452 | 2.62520 | 37873 ft | 477 kts | 313° |
| 2026-05-05 20:07 | 49.59064 | 2.55317 | 37875 ft | 477 kts | 313° |
| 2026-05-05 20:08 | 49.63598 | 2.47848 | 37881 ft | 476 kts | 309° |
| 2026-05-05 20:08 | 49.67823 | 2.40063 | 37888 ft | 476 kts | 308° |
| 2026-05-05 20:09 | 49.72013 | 2.32147 | 37894 ft | 476 kts | 308° |
| 2026-05-05 20:09 | 49.76265 | 2.24313 | 37899 ft | 476 kts | 309° |
| 2026-05-05 20:10 | 49.80548 | 2.16511 | 37908 ft | 476 kts | 309° |
| 2026-05-05 20:10 | 49.84813 | 2.08710 | 37911 ft | 476 kts | 309° |
| 2026-05-05 20:11 | 49.89076 | 2.00873 | 37922 ft | 475 kts | 308° |
| 2026-05-05 20:11 | 49.93321 | 1.93020 | 37922 ft | 474 kts | 308° |
| 2026-05-05 20:12 | 49.97465 | 1.85317 | 37905 ft | 455 kts | 308° |
| 2026-05-05 20:12 | 49.99484 | 1.81554 | 37424 ft | 457 kts | 308° |
| 2026-05-05 20:12 | 50.01513 | 1.77779 | 36303 ft | 466 kts | 309° |
| 2026-05-05 20:12 | 50.03605 | 1.73881 | 35431 ft | 471 kts | 309° |
| 2026-05-05 20:13 | 50.05717 | 1.69943 | 35083 ft | 461 kts | 309° |
| 2026-05-05 20:13 | 50.07877 | 1.66321 | 34886 ft | 454 kts | 318° |
| 2026-05-05 20:13 | 50.10238 | 1.63115 | 34906 ft | 451 kts | 319° |
| 2026-05-05 20:14 | 50.14979 | 1.56691 | 34911 ft | 451 kts | 319° |
| 2026-05-05 20:14 | 50.19699 | 1.50267 | 34913 ft | 451 kts | 318° |
| 2026-05-05 20:14 | 50.22053 | 1.47057 | 34672 ft | 447 kts | 318° |
| 2026-05-05 20:15 | 50.24375 | 1.43881 | 33853 ft | 441 kts | 319° |
| 2026-05-05 20:15 | 50.26672 | 1.40735 | 32920 ft | 435 kts | 319° |
| 2026-05-05 20:15 | 50.28932 | 1.37641 | 32029 ft | 429 kts | 319° |
| 2026-05-05 20:15 | 50.31162 | 1.34584 | 31197 ft | 423 kts | 319° |
| 2026-05-05 20:16 | 50.33357 | 1.31577 | 30397 ft | 416 kts | 319° |
| 2026-05-05 20:16 | 50.35511 | 1.28620 | 29616 ft | 408 kts | 319° |
| 2026-05-05 20:16 | 50.37604 | 1.25745 | 28772 ft | 400 kts | 319° |
| 2026-05-05 20:16 | 50.39676 | 1.22892 | 27910 ft | 393 kts | 319° |
| 2026-05-05 20:17 | 50.41709 | 1.20088 | 27071 ft | 387 kts | 319° |
| 2026-05-05 20:17 | 50.43713 | 1.17320 | 26251 ft | 381 kts | 319° |
| 2026-05-05 20:17 | 50.45694 | 1.14581 | 25453 ft | 376 kts | 319° |
| 2026-05-05 20:17 | 50.47639 | 1.11890 | 24679 ft | 371 kts | 319° |
| 2026-05-05 20:18 | 50.49559 | 1.09229 | 23932 ft | 366 kts | 319° |
| 2026-05-05 20:18 | 50.50819 | 1.07482 | 23434 ft | 363 kts | 319° |
| 2026-05-05 20:18 | 50.52595 | 1.04695 | 22562 ft | 358 kts | 313° |
| 2026-05-05 20:18 | 50.54271 | 1.01864 | 21762 ft | 354 kts | 314° |
| 2026-05-05 20:19 | 50.55938 | 0.99056 | 20996 ft | 349 kts | 314° |
| 2026-05-05 20:19 | 50.57585 | 0.96283 | 20242 ft | 345 kts | 314° |
| 2026-05-05 20:19 | 50.59218 | 0.93534 | 19505 ft | 341 kts | 314° |
| 2026-05-05 20:19 | 50.60827 | 0.90821 | 18801 ft | 337 kts | 314° |
| 2026-05-05 20:20 | 50.62421 | 0.88132 | 18106 ft | 334 kts | 314° |
| 2026-05-05 20:20 | 50.63995 | 0.85468 | 17336 ft | 330 kts | 314° |
| 2026-05-05 20:20 | 50.65544 | 0.82844 | 16742 ft | 323 kts | 314° |
| 2026-05-05 20:20 | 50.67047 | 0.80291 | 16146 ft | 318 kts | 314° |
| 2026-05-05 20:21 | 50.68505 | 0.77703 | 15522 ft | 315 kts | 311° |
| 2026-05-05 20:21 | 50.69892 | 0.75050 | 14887 ft | 312 kts | 310° |
| 2026-05-05 20:21 | 50.71239 | 0.72378 | 14272 ft | 310 kts | 310° |
| 2026-05-05 20:21 | 50.72560 | 0.69729 | 13670 ft | 308 kts | 310° |
| 2026-05-05 20:22 | 50.73881 | 0.67089 | 13013 ft | 304 kts | 310° |
| 2026-05-05 20:22 | 50.75185 | 0.64494 | 12398 ft | 300 kts | 310° |
| 2026-05-05 20:22 | 50.76479 | 0.61929 | 11793 ft | 296 kts | 310° |
| 2026-05-05 20:22 | 50.77747 | 0.59425 | 11195 ft | 292 kts | 310° |
| 2026-05-05 20:23 | 50.79009 | 0.56937 | 10610 ft | 288 kts | 310° |
| 2026-05-05 20:23 | 50.80253 | 0.54488 | 10015 ft | 284 kts | 310° |
| 2026-05-05 20:23 | 50.81482 | 0.52071 | 9371 ft | 280 kts | 310° |
| 2026-05-05 20:23 | 50.82692 | 0.49691 | 8720 ft | 276 kts | 310° |
| 2026-05-05 20:24 | 50.83888 | 0.47332 | 8074 ft | 273 kts | 310° |
| 2026-05-05 20:24 | 50.85065 | 0.45010 | 7425 ft | 269 kts | 311° |
| 2026-05-05 20:24 | 50.86228 | 0.42708 | 6834 ft | 265 kts | 311° |
| 2026-05-05 20:24 | 50.87095 | 0.40988 | 6369 ft | 262 kts | 311° |